sensor_id;sensor_type;location;lat;lon;timestamp;P1;durP1;ratioP1;P2;durP2;ratioP2
62584;SDS011;48643;51.670;5.808;2024-03-08T00:02:18;27.70;;;13.30;;
62584;SDS011;48643;51.670;5.808;2024-03-08T00:04:45;25.55;;;12.93;;
62584;SDS011;48643;51.670;5.808;2024-03-08T00:07:12;29.15;;;13.85;;
62584;SDS011;48643;51.670;5.808;2024-03-08T00:09:39;25.27;;;13.25;;
62584;SDS011;48643;51.670;5.808;2024-03-08T00:12:07;23.80;;;13.10;;
62584;SDS011;48643;51.670;5.808;2024-03-08T00:14:34;27.40;;;12.70;;
62584;SDS011;48643;51.670;5.808;2024-03-08T00:17:03;23.35;;;12.60;;
62584;SDS011;48643;51.670;5.808;2024-03-08T00:19:30;24.45;;;13.68;;
62584;SDS011;48643;51.670;5.808;2024-03-08T00:21:57;24.10;;;12.98;;
62584;SDS011;48643;51.670;5.808;2024-03-08T00:24:24;25.35;;;13.82;;
62584;SDS011;48643;51.670;5.808;2024-03-08T00:26:52;26.90;;;12.68;;
62584;SDS011;48643;51.670;5.808;2024-03-08T00:29:20;23.30;;;12.63;;
62584;SDS011;48643;51.670;5.808;2024-03-08T00:31:48;22.60;;;12.38;;
62584;SDS011;48643;51.670;5.808;2024-03-08T00:34:15;22.00;;;12.00;;
62584;SDS011;48643;51.670;5.808;2024-03-08T00:36:42;24.98;;;12.32;;
62584;SDS011;48643;51.670;5.808;2024-03-08T00:39:10;24.25;;;12.65;;
62584;SDS011;48643;51.670;5.808;2024-03-08T00:41:38;20.30;;;11.23;;
62584;SDS011;48643;51.670;5.808;2024-03-08T00:44:05;23.92;;;12.20;;
62584;SDS011;48643;51.670;5.808;2024-03-08T00:46:32;22.55;;;12.02;;
62584;SDS011;48643;51.670;5.808;2024-03-08T00:49:00;21.38;;;11.93;;
62584;SDS011;48643;51.670;5.808;2024-03-08T00:51:27;19.73;;;11.68;;
62584;SDS011;48643;51.670;5.808;2024-03-08T00:53:54;24.90;;;12.32;;
62584;SDS011;48643;51.670;5.808;2024-03-08T00:56:21;22.73;;;11.68;;
62584;SDS011;48643;51.670;5.808;2024-03-08T00:58:48;19.48;;;11.52;;
62584;SDS011;48643;51.670;5.808;2024-03-08T01:01:15;21.25;;;11.63;;
62584;SDS011;48643;51.670;5.808;2024-03-08T01:03:42;23.48;;;11.70;;
62584;SDS011;48643;51.670;5.808;2024-03-08T01:06:09;19.63;;;11.38;;
62584;SDS011;48643;51.670;5.808;2024-03-08T01:08:38;21.25;;;11.15;;
62584;SDS011;48643;51.670;5.808;2024-03-08T01:11:07;19.88;;;10.90;;
62584;SDS011;48643;51.670;5.808;2024-03-08T01:13:38;23.02;;;11.38;;
62584;SDS011;48643;51.670;5.808;2024-03-08T01:16:05;21.23;;;11.27;;
62584;SDS011;48643;51.670;5.808;2024-03-08T01:18:32;22.80;;;11.35;;
62584;SDS011;48643;51.670;5.808;2024-03-08T01:20:59;20.77;;;10.57;;
62584;SDS011;48643;51.670;5.808;2024-03-08T01:23:26;18.80;;;10.63;;
62584;SDS011;48643;51.670;5.808;2024-03-08T01:25:53;21.42;;;11.35;;
62584;SDS011;48643;51.670;5.808;2024-03-08T01:28:24;18.30;;;10.63;;
62584;SDS011;48643;51.670;5.808;2024-03-08T01:30:51;18.83;;;10.50;;
62584;SDS011;48643;51.670;5.808;2024-03-08T01:33:22;18.73;;;10.68;;
62584;SDS011;48643;51.670;5.808;2024-03-08T01:35:51;17.52;;;10.13;;
62584;SDS011;48643;51.670;5.808;2024-03-08T01:38:20;16.73;;;10.43;;
62584;SDS011;48643;51.670;5.808;2024-03-08T01:40:48;18.67;;;10.80;;
62584;SDS011;48643;51.670;5.808;2024-03-08T01:43:18;20.20;;;10.88;;
62584;SDS011;48643;51.670;5.808;2024-03-08T01:45:46;19.45;;;10.32;;
62584;SDS011;48643;51.670;5.808;2024-03-08T01:48:14;16.48;;;10.13;;
62584;SDS011;48643;51.670;5.808;2024-03-08T01:50:41;16.08;;;10.10;;
62584;SDS011;48643;51.670;5.808;2024-03-08T01:53:08;18.88;;;9.55;;
62584;SDS011;48643;51.670;5.808;2024-03-08T01:55:38;16.58;;;9.93;;
62584;SDS011;48643;51.670;5.808;2024-03-08T01:58:06;18.58;;;10.13;;
62584;SDS011;48643;51.670;5.808;2024-03-08T02:00:33;17.17;;;9.77;;
62584;SDS011;48643;51.670;5.808;2024-03-08T02:03:01;17.48;;;10.07;;
62584;SDS011;48643;51.670;5.808;2024-03-08T02:05:28;16.80;;;9.90;;
62584;SDS011;48643;51.670;5.808;2024-03-08T02:07:55;17.60;;;9.57;;
62584;SDS011;48643;51.670;5.808;2024-03-08T02:10:23;16.95;;;9.82;;
62584;SDS011;48643;51.670;5.808;2024-03-08T02:12:50;15.90;;;9.77;;
62584;SDS011;48643;51.670;5.808;2024-03-08T02:15:17;19.85;;;10.10;;
62584;SDS011;48643;51.670;5.808;2024-03-08T02:17:44;17.00;;;9.60;;
62584;SDS011;48643;51.670;5.808;2024-03-08T02:20:11;16.27;;;9.45;;
62584;SDS011;48643;51.670;5.808;2024-03-08T02:22:40;14.98;;;9.23;;
62584;SDS011;48643;51.670;5.808;2024-03-08T02:25:07;20.17;;;9.93;;
62584;SDS011;48643;51.670;5.808;2024-03-08T02:27:34;16.52;;;9.52;;
62584;SDS011;48643;51.670;5.808;2024-03-08T02:30:01;17.40;;;9.32;;
62584;SDS011;48643;51.670;5.808;2024-03-08T02:32:28;20.90;;;9.80;;
62584;SDS011;48643;51.670;5.808;2024-03-08T02:34:56;17.02;;;9.90;;
62584;SDS011;48643;51.670;5.808;2024-03-08T02:37:26;15.85;;;9.55;;
62584;SDS011;48643;51.670;5.808;2024-03-08T02:39:55;14.73;;;9.20;;
62584;SDS011;48643;51.670;5.808;2024-03-08T02:42:22;14.48;;;9.20;;
62584;SDS011;48643;51.670;5.808;2024-03-08T02:44:49;17.40;;;9.90;;
62584;SDS011;48643;51.670;5.808;2024-03-08T02:47:16;17.83;;;9.70;;
62584;SDS011;48643;51.670;5.808;2024-03-08T02:49:43;16.38;;;10.15;;
62584;SDS011;48643;51.670;5.808;2024-03-08T02:52:10;15.52;;;9.73;;
62584;SDS011;48643;51.670;5.808;2024-03-08T02:54:37;16.60;;;9.27;;
62584;SDS011;48643;51.670;5.808;2024-03-08T02:57:04;14.60;;;9.50;;
62584;SDS011;48643;51.670;5.808;2024-03-08T02:59:33;16.45;;;9.85;;
62584;SDS011;48643;51.670;5.808;2024-03-08T03:02:01;15.35;;;9.20;;
62584;SDS011;48643;51.670;5.808;2024-03-08T03:04:27;16.88;;;9.93;;
62584;SDS011;48643;51.670;5.808;2024-03-08T03:06:54;14.75;;;9.88;;
62584;SDS011;48643;51.670;5.808;2024-03-08T03:09:21;13.57;;;8.98;;
62584;SDS011;48643;51.670;5.808;2024-03-08T03:11:53;14.50;;;9.60;;
62584;SDS011;48643;51.670;5.808;2024-03-08T03:14:21;16.13;;;9.40;;
62584;SDS011;48643;51.670;5.808;2024-03-08T03:16:48;15.05;;;9.57;;
62584;SDS011;48643;51.670;5.808;2024-03-08T03:19:16;14.98;;;9.48;;
62584;SDS011;48643;51.670;5.808;2024-03-08T03:21:43;15.40;;;9.50;;
62584;SDS011;48643;51.670;5.808;2024-03-08T03:24:10;15.60;;;9.80;;
62584;SDS011;48643;51.670;5.808;2024-03-08T03:26:37;16.55;;;9.70;;
62584;SDS011;48643;51.670;5.808;2024-03-08T03:29:05;15.93;;;9.63;;
62584;SDS011;48643;51.670;5.808;2024-03-08T03:31:32;16.98;;;9.75;;
62584;SDS011;48643;51.670;5.808;2024-03-08T03:33:59;14.70;;;9.70;;
62584;SDS011;48643;51.670;5.808;2024-03-08T03:36:32;13.93;;;9.15;;
62584;SDS011;48643;51.670;5.808;2024-03-08T03:39:01;13.93;;;9.45;;
62584;SDS011;48643;51.670;5.808;2024-03-08T03:41:37;15.65;;;10.20;;
62584;SDS011;48643;51.670;5.808;2024-03-08T03:44:05;15.98;;;9.68;;
62584;SDS011;48643;51.670;5.808;2024-03-08T03:46:36;15.93;;;10.02;;
62584;SDS011;48643;51.670;5.808;2024-03-08T03:49:03;14.30;;;9.52;;
62584;SDS011;48643;51.670;5.808;2024-03-08T03:51:29;13.68;;;9.43;;
62584;SDS011;48643;51.670;5.808;2024-03-08T03:53:56;17.15;;;10.35;;
62584;SDS011;48643;51.670;5.808;2024-03-08T03:56:27;14.23;;;9.55;;
62584;SDS011;48643;51.670;5.808;2024-03-08T03:58:54;15.45;;;9.77;;
62584;SDS011;48643;51.670;5.808;2024-03-08T04:01:21;14.13;;;9.57;;
62584;SDS011;48643;51.670;5.808;2024-03-08T04:03:47;14.85;;;9.75;;
62584;SDS011;48643;51.670;5.808;2024-03-08T04:06:14;16.27;;;9.95;;
62584;SDS011;48643;51.670;5.808;2024-03-08T04:08:41;15.10;;;9.30;;
62584;SDS011;48643;51.670;5.808;2024-03-08T04:11:08;17.38;;;10.23;;
62584;SDS011;48643;51.670;5.808;2024-03-08T04:13:35;13.70;;;9.40;;
62584;SDS011;48643;51.670;5.808;2024-03-08T04:16:02;18.65;;;10.30;;
62584;SDS011;48643;51.670;5.808;2024-03-08T04:18:34;15.55;;;10.15;;
62584;SDS011;48643;51.670;5.808;2024-03-08T04:21:05;18.70;;;10.10;;
62584;SDS011;48643;51.670;5.808;2024-03-08T04:23:35;14.68;;;9.60;;
62584;SDS011;48643;51.670;5.808;2024-03-08T04:26:02;16.08;;;10.50;;
62584;SDS011;48643;51.670;5.808;2024-03-08T04:28:30;16.02;;;9.90;;
62584;SDS011;48643;51.670;5.808;2024-03-08T04:30:57;17.98;;;10.48;;
62584;SDS011;48643;51.670;5.808;2024-03-08T04:33:26;18.50;;;10.00;;
62584;SDS011;48643;51.670;5.808;2024-03-08T04:35:54;16.25;;;10.40;;
62584;SDS011;48643;51.670;5.808;2024-03-08T04:38:21;16.08;;;10.13;;
62584;SDS011;48643;51.670;5.808;2024-03-08T04:40:49;18.05;;;10.02;;
62584;SDS011;48643;51.670;5.808;2024-03-08T04:43:17;16.30;;;10.30;;
62584;SDS011;48643;51.670;5.808;2024-03-08T04:45:44;14.68;;;9.77;;
62584;SDS011;48643;51.670;5.808;2024-03-08T04:48:11;14.95;;;10.25;;
62584;SDS011;48643;51.670;5.808;2024-03-08T04:50:39;16.75;;;10.45;;
62584;SDS011;48643;51.670;5.808;2024-03-08T04:53:06;17.73;;;10.25;;
62584;SDS011;48643;51.670;5.808;2024-03-08T04:55:34;15.23;;;10.18;;
62584;SDS011;48643;51.670;5.808;2024-03-08T04:58:01;16.20;;;10.35;;
62584;SDS011;48643;51.670;5.808;2024-03-08T05:00:30;14.85;;;9.85;;
62584;SDS011;48643;51.670;5.808;2024-03-08T05:02:57;16.85;;;10.68;;
62584;SDS011;48643;51.670;5.808;2024-03-08T05:05:24;19.00;;;10.50;;
62584;SDS011;48643;51.670;5.808;2024-03-08T05:07:54;16.98;;;10.57;;
62584;SDS011;48643;51.670;5.808;2024-03-08T05:10:21;16.65;;;10.35;;
62584;SDS011;48643;51.670;5.808;2024-03-08T05:12:48;16.15;;;10.45;;
62584;SDS011;48643;51.670;5.808;2024-03-08T05:15:16;16.77;;;10.70;;
62584;SDS011;48643;51.670;5.808;2024-03-08T05:17:43;17.75;;;10.75;;
62584;SDS011;48643;51.670;5.808;2024-03-08T05:20:10;15.63;;;10.35;;
62584;SDS011;48643;51.670;5.808;2024-03-08T05:22:39;16.60;;;10.43;;
62584;SDS011;48643;51.670;5.808;2024-03-08T05:27:36;17.27;;;10.40;;
62584;SDS011;48643;51.670;5.808;2024-03-08T05:30:04;17.10;;;10.50;;
62584;SDS011;48643;51.670;5.808;2024-03-08T05:32:31;17.30;;;10.77;;
62584;SDS011;48643;51.670;5.808;2024-03-08T05:34:58;15.68;;;10.60;;
62584;SDS011;48643;51.670;5.808;2024-03-08T05:37:25;16.13;;;10.60;;
62584;SDS011;48643;51.670;5.808;2024-03-08T05:39:52;14.93;;;10.35;;
62584;SDS011;48643;51.670;5.808;2024-03-08T05:42:20;19.20;;;11.40;;
62584;SDS011;48643;51.670;5.808;2024-03-08T05:44:47;16.15;;;10.38;;
62584;SDS011;48643;51.670;5.808;2024-03-08T05:47:14;19.38;;;11.35;;
62584;SDS011;48643;51.670;5.808;2024-03-08T05:49:42;16.17;;;10.75;;
62584;SDS011;48643;51.670;5.808;2024-03-08T05:52:10;16.13;;;10.73;;
62584;SDS011;48643;51.670;5.808;2024-03-08T05:54:37;18.67;;;10.77;;
62584;SDS011;48643;51.670;5.808;2024-03-08T05:57:04;19.20;;;10.98;;
62584;SDS011;48643;51.670;5.808;2024-03-08T05:59:31;20.27;;;10.98;;
62584;SDS011;48643;51.670;5.808;2024-03-08T06:01:58;17.95;;;10.75;;
62584;SDS011;48643;51.670;5.808;2024-03-08T06:04:24;16.75;;;11.00;;
62584;SDS011;48643;51.670;5.808;2024-03-08T06:06:51;16.92;;;11.00;;
62584;SDS011;48643;51.670;5.808;2024-03-08T06:09:21;17.02;;;11.00;;
62584;SDS011;48643;51.670;5.808;2024-03-08T06:11:51;16.20;;;11.00;;
62584;SDS011;48643;51.670;5.808;2024-03-08T06:14:19;19.35;;;12.00;;
62584;SDS011;48643;51.670;5.808;2024-03-08T06:16:46;18.05;;;11.10;;
62584;SDS011;48643;51.670;5.808;2024-03-08T06:19:13;16.52;;;10.93;;
62584;SDS011;48643;51.670;5.808;2024-03-08T06:21:40;17.67;;;11.32;;
62584;SDS011;48643;51.670;5.808;2024-03-08T06:24:07;19.33;;;11.40;;
62584;SDS011;48643;51.670;5.808;2024-03-08T06:26:34;18.75;;;11.80;;
62584;SDS011;48643;51.670;5.808;2024-03-08T06:29:05;17.35;;;11.18;;
62584;SDS011;48643;51.670;5.808;2024-03-08T06:31:33;21.05;;;11.50;;
62584;SDS011;48643;51.670;5.808;2024-03-08T06:34:00;18.17;;;11.50;;
62584;SDS011;48643;51.670;5.808;2024-03-08T06:36:28;17.77;;;11.20;;
62584;SDS011;48643;51.670;5.808;2024-03-08T06:38:54;19.88;;;11.82;;
62584;SDS011;48643;51.670;5.808;2024-03-08T06:41:23;17.65;;;10.98;;
62584;SDS011;48643;51.670;5.808;2024-03-08T06:43:50;18.95;;;11.52;;
62584;SDS011;48643;51.670;5.808;2024-03-08T06:46:18;18.30;;;11.32;;
62584;SDS011;48643;51.670;5.808;2024-03-08T06:48:47;18.13;;;11.07;;
62584;SDS011;48643;51.670;5.808;2024-03-08T06:51:16;17.70;;;11.27;;
62584;SDS011;48643;51.670;5.808;2024-03-08T06:53:43;19.52;;;11.43;;
62584;SDS011;48643;51.670;5.808;2024-03-08T06:56:10;19.40;;;11.63;;
62584;SDS011;48643;51.670;5.808;2024-03-08T06:58:37;18.58;;;12.00;;
62584;SDS011;48643;51.670;5.808;2024-03-08T07:01:04;19.23;;;11.43;;
62584;SDS011;48643;51.670;5.808;2024-03-08T07:03:34;18.13;;;11.20;;
62584;SDS011;48643;51.670;5.808;2024-03-08T07:06:01;20.20;;;11.77;;
62584;SDS011;48643;51.670;5.808;2024-03-08T07:08:29;18.40;;;11.07;;
62584;SDS011;48643;51.670;5.808;2024-03-08T07:10:57;18.75;;;11.52;;
62584;SDS011;48643;51.670;5.808;2024-03-08T07:13:25;17.65;;;11.43;;
62584;SDS011;48643;51.670;5.808;2024-03-08T07:15:53;18.85;;;11.63;;
62584;SDS011;48643;51.670;5.808;2024-03-08T07:18:21;29.52;;;14.95;;
62584;SDS011;48643;51.670;5.808;2024-03-08T07:20:48;27.50;;;16.85;;
62584;SDS011;48643;51.670;5.808;2024-03-08T07:26:04;25.60;;;14.98;;
62584;SDS011;48643;51.670;5.808;2024-03-08T07:28:31;26.63;;;15.40;;
62584;SDS011;48643;51.670;5.808;2024-03-08T07:30:58;31.35;;;14.88;;
62584;SDS011;48643;51.670;5.808;2024-03-08T07:33:43;22.55;;;14.10;;
62584;SDS011;48643;51.670;5.808;2024-03-08T07:36:10;25.52;;;15.20;;
62584;SDS011;48643;51.670;5.808;2024-03-08T07:38:37;23.45;;;14.68;;
62584;SDS011;48643;51.670;5.808;2024-03-08T07:41:04;24.80;;;14.73;;
62584;SDS011;48643;51.670;5.808;2024-03-08T07:43:31;24.95;;;14.57;;
62584;SDS011;48643;51.670;5.808;2024-03-08T07:45:59;25.80;;;14.48;;
62584;SDS011;48643;51.670;5.808;2024-03-08T07:48:26;22.90;;;14.38;;
62584;SDS011;48643;51.670;5.808;2024-03-08T07:50:53;26.13;;;13.73;;
62584;SDS011;48643;51.670;5.808;2024-03-08T07:53:20;20.08;;;13.30;;
62584;SDS011;48643;51.670;5.808;2024-03-08T07:55:48;20.15;;;13.05;;
62584;SDS011;48643;51.670;5.808;2024-03-08T07:58:15;25.08;;;13.35;;
62584;SDS011;48643;51.670;5.808;2024-03-08T08:00:43;24.85;;;13.07;;
62584;SDS011;48643;51.670;5.808;2024-03-08T08:03:10;20.42;;;12.43;;
62584;SDS011;48643;51.670;5.808;2024-03-08T08:05:38;19.42;;;12.57;;
62584;SDS011;48643;51.670;5.808;2024-03-08T08:08:07;19.88;;;12.73;;
62584;SDS011;48643;51.670;5.808;2024-03-08T08:10:34;21.40;;;12.60;;
62584;SDS011;48643;51.670;5.808;2024-03-08T08:13:01;19.85;;;11.98;;
62584;SDS011;48643;51.670;5.808;2024-03-08T08:15:31;22.55;;;13.07;;
62584;SDS011;48643;51.670;5.808;2024-03-08T08:18:00;21.80;;;13.00;;
62584;SDS011;48643;51.670;5.808;2024-03-08T08:20:29;19.20;;;12.05;;
62584;SDS011;48643;51.670;5.808;2024-03-08T08:22:56;24.73;;;12.57;;
62584;SDS011;48643;51.670;5.808;2024-03-08T08:25:22;28.50;;;13.00;;
62584;SDS011;48643;51.670;5.808;2024-03-08T08:27:51;23.65;;;12.10;;
62584;SDS011;48643;51.670;5.808;2024-03-08T08:30:19;20.73;;;12.02;;
62584;SDS011;48643;51.670;5.808;2024-03-08T08:32:46;20.83;;;12.20;;
62584;SDS011;48643;51.670;5.808;2024-03-08T08:35:15;21.90;;;12.25;;
62584;SDS011;48643;51.670;5.808;2024-03-08T08:37:42;28.13;;;16.38;;
62584;SDS011;48643;51.670;5.808;2024-03-08T08:40:11;43.75;;;17.15;;
62584;SDS011;48643;51.670;5.808;2024-03-08T08:42:42;25.02;;;14.38;;
62584;SDS011;48643;51.670;5.808;2024-03-08T08:45:09;23.10;;;15.48;;
62584;SDS011;48643;51.670;5.808;2024-03-08T08:47:43;24.63;;;15.80;;
62584;SDS011;48643;51.670;5.808;2024-03-08T08:50:12;25.02;;;15.18;;
62584;SDS011;48643;51.670;5.808;2024-03-08T08:52:39;23.58;;;14.35;;
62584;SDS011;48643;51.670;5.808;2024-03-08T08:55:07;28.45;;;14.77;;
62584;SDS011;48643;51.670;5.808;2024-03-08T08:57:34;20.95;;;13.63;;
62584;SDS011;48643;51.670;5.808;2024-03-08T09:00:02;26.75;;;13.23;;
62584;SDS011;48643;51.670;5.808;2024-03-08T09:02:33;21.67;;;13.32;;
62584;SDS011;48643;51.670;5.808;2024-03-08T09:05:01;21.27;;;13.02;;
62584;SDS011;48643;51.670;5.808;2024-03-08T09:07:28;17.30;;;12.07;;
62584;SDS011;48643;51.670;5.808;2024-03-08T09:09:56;20.27;;;11.05;;
62584;SDS011;48643;51.670;5.808;2024-03-08T09:12:23;19.42;;;11.25;;
62584;SDS011;48643;51.670;5.808;2024-03-08T09:14:50;17.30;;;11.35;;
62584;SDS011;48643;51.670;5.808;2024-03-08T09:17:18;18.23;;;10.85;;
62584;SDS011;48643;51.670;5.808;2024-03-08T09:19:47;19.40;;;10.30;;
62584;SDS011;48643;51.670;5.808;2024-03-08T09:22:14;16.73;;;10.50;;
62584;SDS011;48643;51.670;5.808;2024-03-08T09:24:41;20.23;;;9.88;;
62584;SDS011;48643;51.670;5.808;2024-03-08T09:27:09;21.42;;;13.63;;
62584;SDS011;48643;51.670;5.808;2024-03-08T09:29:36;25.95;;;12.80;;
62584;SDS011;48643;51.670;5.808;2024-03-08T09:32:03;21.15;;;13.35;;
62584;SDS011;48643;51.670;5.808;2024-03-08T09:34:30;20.88;;;12.27;;
62584;SDS011;48643;51.670;5.808;2024-03-08T09:37:03;32.17;;;12.15;;
62584;SDS011;48643;51.670;5.808;2024-03-08T09:39:35;28.52;;;15.15;;
62584;SDS011;48643;51.670;5.808;2024-03-08T09:42:02;26.88;;;13.93;;
62584;SDS011;48643;51.670;5.808;2024-03-08T09:44:29;24.48;;;13.05;;
62584;SDS011;48643;51.670;5.808;2024-03-08T09:46:57;23.25;;;12.80;;
62584;SDS011;48643;51.670;5.808;2024-03-08T09:49:25;22.27;;;12.13;;
62584;SDS011;48643;51.670;5.808;2024-03-08T09:51:52;22.67;;;12.65;;
62584;SDS011;48643;51.670;5.808;2024-03-08T09:54:19;20.77;;;11.32;;
62584;SDS011;48643;51.670;5.808;2024-03-08T09:56:51;17.90;;;11.38;;
62584;SDS011;48643;51.670;5.808;2024-03-08T09:59:18;16.05;;;10.68;;
62584;SDS011;48643;51.670;5.808;2024-03-08T10:01:54;18.00;;;10.68;;
62584;SDS011;48643;51.670;5.808;2024-03-08T10:04:22;24.13;;;12.20;;
62584;SDS011;48643;51.670;5.808;2024-03-08T10:06:49;19.48;;;11.48;;
62584;SDS011;48643;51.670;5.808;2024-03-08T10:09:16;17.45;;;10.93;;
62584;SDS011;48643;51.670;5.808;2024-03-08T10:11:43;17.85;;;11.25;;
62584;SDS011;48643;51.670;5.808;2024-03-08T10:14:11;19.75;;;11.27;;
62584;SDS011;48643;51.670;5.808;2024-03-08T10:16:39;18.58;;;10.55;;
62584;SDS011;48643;51.670;5.808;2024-03-08T10:19:06;14.90;;;10.43;;
62584;SDS011;48643;51.670;5.808;2024-03-08T10:21:34;15.40;;;10.43;;
62584;SDS011;48643;51.670;5.808;2024-03-08T10:24:02;17.08;;;10.40;;
62584;SDS011;48643;51.670;5.808;2024-03-08T10:26:29;22.95;;;13.32;;
62584;SDS011;48643;51.670;5.808;2024-03-08T10:28:57;19.42;;;10.73;;
62584;SDS011;48643;51.670;5.808;2024-03-08T10:31:24;16.10;;;10.73;;
62584;SDS011;48643;51.670;5.808;2024-03-08T10:33:52;14.85;;;10.00;;
62584;SDS011;48643;51.670;5.808;2024-03-08T10:36:19;18.02;;;10.07;;
62584;SDS011;48643;51.670;5.808;2024-03-08T10:38:46;17.23;;;9.60;;
62584;SDS011;48643;51.670;5.808;2024-03-08T10:41:14;13.17;;;9.67;;
62584;SDS011;48643;51.670;5.808;2024-03-08T10:43:52;15.25;;;9.30;;
62584;SDS011;48643;51.670;5.808;2024-03-08T10:49:16;12.52;;;9.23;;
62584;SDS011;48643;51.670;5.808;2024-03-08T10:51:46;13.48;;;9.15;;
62584;SDS011;48643;51.670;5.808;2024-03-08T10:54:14;16.42;;;9.68;;
62584;SDS011;48643;51.670;5.808;2024-03-08T10:56:42;14.35;;;9.65;;
62584;SDS011;48643;51.670;5.808;2024-03-08T10:59:09;13.80;;;9.80;;
62584;SDS011;48643;51.670;5.808;2024-03-08T11:01:36;27.02;;;12.63;;
62584;SDS011;48643;51.670;5.808;2024-03-08T11:04:04;20.25;;;11.73;;
62584;SDS011;48643;51.670;5.808;2024-03-08T11:09:27;16.73;;;9.88;;
62584;SDS011;48643;51.670;5.808;2024-03-08T11:12:18;13.85;;;9.30;;
62584;SDS011;48643;51.670;5.808;2024-03-08T11:14:57;14.25;;;9.90;;
62584;SDS011;48643;51.670;5.808;2024-03-08T11:19:56;16.33;;;10.10;;
62584;SDS011;48643;51.670;5.808;2024-03-08T11:22:28;15.57;;;10.32;;
62584;SDS011;48643;51.670;5.808;2024-03-08T11:25:08;14.05;;;9.88;;
62584;SDS011;48643;51.670;5.808;2024-03-08T11:27:38;16.83;;;10.13;;
62584;SDS011;48643;51.670;5.808;2024-03-08T11:30:06;18.05;;;9.27;;
62584;SDS011;48643;51.670;5.808;2024-03-08T11:32:47;16.70;;;9.95;;
62584;SDS011;48643;51.670;5.808;2024-03-08T11:35:21;12.82;;;9.10;;
62584;SDS011;48643;51.670;5.808;2024-03-08T11:37:51;14.10;;;9.48;;
62584;SDS011;48643;51.670;5.808;2024-03-08T11:40:18;14.55;;;9.13;;
62584;SDS011;48643;51.670;5.808;2024-03-08T11:42:47;15.88;;;10.63;;
62584;SDS011;48643;51.670;5.808;2024-03-08T11:45:15;29.55;;;10.45;;
62584;SDS011;48643;51.670;5.808;2024-03-08T11:47:44;22.17;;;10.55;;
62584;SDS011;48643;51.670;5.808;2024-03-08T11:50:16;16.80;;;9.82;;
62584;SDS011;48643;51.670;5.808;2024-03-08T11:52:45;14.57;;;9.63;;
62584;SDS011;48643;51.670;5.808;2024-03-08T11:55:12;20.02;;;9.60;;
62584;SDS011;48643;51.670;5.808;2024-03-08T11:57:40;16.95;;;9.13;;
62584;SDS011;48643;51.670;5.808;2024-03-08T12:00:14;17.37;;;9.57;;
62584;SDS011;48643;51.670;5.808;2024-03-08T12:03:00;19.38;;;9.50;;
62584;SDS011;48643;51.670;5.808;2024-03-08T12:05:32;14.13;;;9.23;;
62584;SDS011;48643;51.670;5.808;2024-03-08T12:08:03;13.52;;;8.95;;
62584;SDS011;48643;51.670;5.808;2024-03-08T12:10:31;13.77;;;9.43;;
62584;SDS011;48643;51.670;5.808;2024-03-08T12:12:58;15.05;;;9.63;;
62584;SDS011;48643;51.670;5.808;2024-03-08T12:15:26;18.70;;;10.32;;
62584;SDS011;48643;51.670;5.808;2024-03-08T12:17:54;20.33;;;10.23;;
62584;SDS011;48643;51.670;5.808;2024-03-08T12:20:25;24.02;;;12.88;;
62584;SDS011;48643;51.670;5.808;2024-03-08T12:22:53;16.55;;;10.68;;
62584;SDS011;48643;51.670;5.808;2024-03-08T12:25:41;21.42;;;10.98;;
62584;SDS011;48643;51.670;5.808;2024-03-08T12:28:12;20.05;;;11.43;;
62584;SDS011;48643;51.670;5.808;2024-03-08T12:30:50;18.23;;;10.18;;
62584;SDS011;48643;51.670;5.808;2024-03-08T12:33:23;16.50;;;10.77;;
62584;SDS011;48643;51.670;5.808;2024-03-08T12:35:53;14.80;;;9.73;;
62584;SDS011;48643;51.670;5.808;2024-03-08T12:38:22;17.60;;;9.88;;
62584;SDS011;48643;51.670;5.808;2024-03-08T12:40:55;16.05;;;10.35;;
62584;SDS011;48643;51.670;5.808;2024-03-08T12:43:26;14.68;;;10.00;;
62584;SDS011;48643;51.670;5.808;2024-03-08T12:45:57;17.08;;;9.95;;
62584;SDS011;48643;51.670;5.808;2024-03-08T12:48:24;15.82;;;10.35;;
62584;SDS011;48643;51.670;5.808;2024-03-08T12:50:51;16.70;;;10.18;;
62584;SDS011;48643;51.670;5.808;2024-03-08T12:53:18;17.23;;;9.95;;
62584;SDS011;48643;51.670;5.808;2024-03-08T12:55:45;15.40;;;9.93;;
62584;SDS011;48643;51.670;5.808;2024-03-08T12:58:12;16.00;;;9.75;;
62584;SDS011;48643;51.670;5.808;2024-03-08T13:00:39;14.93;;;9.88;;
62584;SDS011;48643;51.670;5.808;2024-03-08T13:03:09;16.40;;;9.05;;
62584;SDS011;48643;51.670;5.808;2024-03-08T13:05:37;16.05;;;9.70;;
62584;SDS011;48643;51.670;5.808;2024-03-08T13:08:06;17.60;;;9.65;;
62584;SDS011;48643;51.670;5.808;2024-03-08T13:10:39;13.32;;;9.57;;
62584;SDS011;48643;51.670;5.808;2024-03-08T13:13:06;15.60;;;9.90;;
62584;SDS011;48643;51.670;5.808;2024-03-08T13:15:33;14.70;;;9.63;;
62584;SDS011;48643;51.670;5.808;2024-03-08T13:18:00;13.63;;;9.80;;
62584;SDS011;48643;51.670;5.808;2024-03-08T13:20:27;12.10;;;9.23;;
62584;SDS011;48643;51.670;5.808;2024-03-08T13:23:05;13.40;;;9.73;;
62584;SDS011;48643;51.670;5.808;2024-03-08T13:25:35;13.75;;;9.25;;
62584;SDS011;48643;51.670;5.808;2024-03-08T13:28:05;14.98;;;9.82;;
62584;SDS011;48643;51.670;5.808;2024-03-08T13:30:32;13.23;;;9.70;;
62584;SDS011;48643;51.670;5.808;2024-03-08T13:32:59;13.73;;;9.15;;
62584;SDS011;48643;51.670;5.808;2024-03-08T13:35:26;21.05;;;13.45;;
62584;SDS011;48643;51.670;5.808;2024-03-08T13:37:56;23.63;;;10.32;;
62584;SDS011;48643;51.670;5.808;2024-03-08T13:40:23;16.20;;;9.45;;
62584;SDS011;48643;51.670;5.808;2024-03-08T13:42:50;15.68;;;9.20;;
62584;SDS011;48643;51.670;5.808;2024-03-08T13:45:17;16.48;;;9.45;;
62584;SDS011;48643;51.670;5.808;2024-03-08T13:47:53;15.88;;;9.50;;
62584;SDS011;48643;51.670;5.808;2024-03-08T13:50:21;13.65;;;9.18;;
62584;SDS011;48643;51.670;5.808;2024-03-08T13:52:49;13.68;;;9.10;;
62584;SDS011;48643;51.670;5.808;2024-03-08T13:55:23;13.45;;;9.30;;
62584;SDS011;48643;51.670;5.808;2024-03-08T13:57:54;14.82;;;9.27;;
62584;SDS011;48643;51.670;5.808;2024-03-08T14:00:23;16.10;;;9.35;;
62584;SDS011;48643;51.670;5.808;2024-03-08T14:02:53;20.50;;;12.68;;
62584;SDS011;48643;51.670;5.808;2024-03-08T14:05:20;18.70;;;10.30;;
62584;SDS011;48643;51.670;5.808;2024-03-08T14:07:47;15.02;;;9.48;;
62584;SDS011;48643;51.670;5.808;2024-03-08T14:10:16;20.27;;;9.05;;
62584;SDS011;48643;51.670;5.808;2024-03-08T14:12:47;14.30;;;9.68;;
62584;SDS011;48643;51.670;5.808;2024-03-08T14:15:17;13.70;;;9.50;;
62584;SDS011;48643;51.670;5.808;2024-03-08T14:17:44;13.95;;;9.50;;
62584;SDS011;48643;51.670;5.808;2024-03-08T14:20:13;14.07;;;9.20;;
62584;SDS011;48643;51.670;5.808;2024-03-08T14:22:40;12.20;;;8.93;;
62584;SDS011;48643;51.670;5.808;2024-03-08T14:25:07;12.18;;;8.77;;
62584;SDS011;48643;51.670;5.808;2024-03-08T14:27:44;14.35;;;8.50;;
62584;SDS011;48643;51.670;5.808;2024-03-08T14:30:12;11.57;;;8.60;;
62584;SDS011;48643;51.670;5.808;2024-03-08T14:32:40;12.55;;;8.40;;
62584;SDS011;48643;51.670;5.808;2024-03-08T14:35:08;13.82;;;8.20;;
62584;SDS011;48643;51.670;5.808;2024-03-08T14:37:37;12.70;;;8.60;;
62584;SDS011;48643;51.670;5.808;2024-03-08T14:40:04;11.63;;;8.25;;
62584;SDS011;48643;51.670;5.808;2024-03-08T14:42:32;12.00;;;8.25;;
62584;SDS011;48643;51.670;5.808;2024-03-08T14:44:59;12.10;;;8.90;;
62584;SDS011;48643;51.670;5.808;2024-03-08T14:47:26;12.80;;;8.15;;